sensor_id;sensor_type;location;lat;lon;timestamp;temperature;humidity
55365;DHT22;41245;45.384;20.390;2023-03-31T10:31:36;538.30;2406.40
55365;DHT22;41245;45.384;20.390;2023-03-31T10:34:12;537.90;2406.40
55365;DHT22;41245;45.384;20.390;2023-03-31T10:36:45;538.10;2406.40
55365;DHT22;41245;45.384;20.390;2023-03-31T10:39:15;538.00;2406.40
55365;DHT22;41245;45.384;20.390;2023-03-31T10:41:41;537.90;2406.40
55365;DHT22;41245;45.384;20.390;2023-03-31T10:44:30;538.00;2406.40
55365;DHT22;41245;45.384;20.390;2023-03-31T10:47:03;538.40;2406.40
55365;DHT22;41245;45.384;20.390;2023-03-31T10:49:29;538.00;2406.40
55365;DHT22;41245;45.384;20.390;2023-03-31T10:51:57;538.10;2406.40
55365;DHT22;41245;45.384;20.390;2023-03-31T10:54:24;538.10;2406.40
55365;DHT22;41245;45.384;20.390;2023-03-31T10:56:58;538.20;2406.40
55365;DHT22;41245;45.384;20.390;2023-03-31T11:12:51;563.50;2432.00
55365;DHT22;41245;45.384;20.390;2023-03-31T11:23:48;564.10;2432.00
55365;DHT22;41245;45.384;20.390;2023-03-31T11:42:55;563.70;2432.00
55365;DHT22;41245;45.384;20.390;2023-03-31T11:45:34;563.70;2432.00
55365;DHT22;41245;45.384;20.390;2023-03-31T11:48:04;563.80;2432.00
55365;DHT22;41245;45.384;20.390;2023-03-31T11:50:35;563.80;2432.00
55365;DHT22;41245;45.384;20.390;2023-03-31T11:53:17;563.70;2432.00
55365;DHT22;41245;45.384;20.390;2023-03-31T11:55:47;563.80;2432.00
55365;DHT22;41245;45.384;20.390;2023-03-31T11:58:19;563.90;2432.00
55365;DHT22;41245;45.384;20.390;2023-03-31T12:00:52;564.00;2432.00
55365;DHT22;41245;45.384;20.390;2023-03-31T12:06:03;563.90;2432.00
55365;DHT22;41245;45.384;20.390;2023-03-31T12:09:00;563.90;2432.00
55365;DHT22;41245;45.384;20.390;2023-03-31T12:11:55;563.80;2432.00
55365;DHT22;41245;45.384;20.390;2023-03-31T12:17:14;563.70;2432.00
55365;DHT22;41245;45.384;20.390;2023-03-31T12:19:51;563.80;2432.00
55365;DHT22;41245;45.384;20.390;2023-03-31T12:24:46;563.80;2432.00
55365;DHT22;41245;45.384;20.390;2023-03-31T12:27:19;563.90;2432.00
55365;DHT22;41245;45.384;20.390;2023-03-31T12:30:13;563.80;2432.00
55365;DHT22;41245;45.384;20.390;2023-03-31T12:32:45;563.90;2432.00
55365;DHT22;41245;45.384;20.390;2023-03-31T12:35:26;564.00;2432.00
55365;DHT22;41245;45.384;20.390;2023-03-31T12:41:29;563.90;2432.00
55365;DHT22;41245;45.384;20.390;2023-03-31T12:52:07;564.10;2432.00
55365;DHT22;41245;45.384;20.390;2023-03-31T13:04:38;564.00;2432.00
55365;DHT22;41245;45.384;20.390;2023-03-31T13:07:07;564.00;2432.00
55365;DHT22;41245;45.384;20.390;2023-03-31T13:09:47;588.80;2432.00
55365;DHT22;41245;45.384;20.390;2023-03-31T13:12:19;589.10;2432.00
55365;DHT22;41245;45.384;20.390;2023-03-31T13:14:48;589.10;2432.00
55365;DHT22;41245;45.384;20.390;2023-03-31T13:17:31;589.00;2432.00
55365;DHT22;41245;45.384;20.390;2023-03-31T13:22:59;589.10;2432.00
55365;DHT22;41245;45.384;20.390;2023-03-31T13:27:55;589.30;2432.00
55365;DHT22;41245;45.384;20.390;2023-03-31T13:33:11;588.90;2432.00
55365;DHT22;41245;45.384;20.390;2023-03-31T13:35:41;588.80;2432.00
55365;DHT22;41245;45.384;20.390;2023-03-31T13:41:53;564.10;2432.00
55365;DHT22;41245;45.384;20.390;2023-03-31T13:44:00;588.80;2432.00
55365;DHT22;41245;45.384;20.390;2023-03-31T13:52:04;589.10;2432.00
55365;DHT22;41245;45.384;20.390;2023-03-31T13:57:56;588.90;2432.00
55365;DHT22;41245;45.384;20.390;2023-03-31T14:06:34;589.00;2432.00
55365;DHT22;41245;45.384;20.390;2023-03-31T14:09:05;589.10;2432.00
55365;DHT22;41245;45.384;20.390;2023-03-31T14:11:32;588.90;2432.00
55365;DHT22;41245;45.384;20.390;2023-03-31T14:14:24;588.80;2432.00
55365;DHT22;41245;45.384;20.390;2023-03-31T14:22:35;564.00;2432.00
55365;DHT22;41245;45.384;20.390;2023-03-31T14:38:44;588.90;2432.00
55365;DHT22;41245;45.384;20.390;2023-03-31T14:41:17;588.80;2432.00
55365;DHT22;41245;45.384;20.390;2023-03-31T14:43:48;588.80;2432.00
55365;DHT22;41245;45.384;20.390;2023-03-31T14:46:19;564.10;2432.00
55365;DHT22;41245;45.384;20.390;2023-03-31T14:48:47;564.10;2432.00
55365;DHT22;41245;45.384;20.390;2023-03-31T14:51:16;564.00;2432.00
55365;DHT22;41245;45.384;20.390;2023-03-31T14:53:42;564.10;2432.00
55365;DHT22;41245;45.384;20.390;2023-03-31T14:58:40;564.00;2432.00
55365;DHT22;41245;45.384;20.390;2023-03-31T15:01:08;563.60;2432.00
55365;DHT22;41245;45.384;20.390;2023-03-31T15:03:37;563.80;2432.00
55365;DHT22;41245;45.384;20.390;2023-03-31T15:06:06;563.70;2432.00
55365;DHT22;41245;45.384;20.390;2023-03-31T15:08:33;564.00;2432.00
55365;DHT22;41245;45.384;20.390;2023-03-31T15:11:05;564.00;2432.00
55365;DHT22;41245;45.384;20.390;2023-03-31T15:13:37;564.00;2432.00
55365;DHT22;41245;45.384;20.390;2023-03-31T15:18:53;563.70;2432.00
55365;DHT22;41245;45.384;20.390;2023-03-31T15:21:20;563.50;2432.00
55365;DHT22;41245;45.384;20.390;2023-03-31T15:23:46;563.40;2432.00
55365;DHT22;41245;45.384;20.390;2023-03-31T15:26:15;563.30;2432.00
55365;DHT22;41245;45.384;20.390;2023-03-31T15:28:53;563.30;2432.00
55365;DHT22;41245;45.384;20.390;2023-03-31T15:31:19;563.30;2432.00
55365;DHT22;41245;45.384;20.390;2023-03-31T15:33:46;563.30;2432.00
55365;DHT22;41245;45.384;20.390;2023-03-31T15:36:12;563.30;2432.00
55365;DHT22;41245;45.384;20.390;2023-03-31T15:38:38;563.50;2432.00
55365;DHT22;41245;45.384;20.390;2023-03-31T15:41:13;563.40;2432.00
55365;DHT22;41245;45.384;20.390;2023-03-31T15:46:10;563.30;2432.00
55365;DHT22;41245;45.384;20.390;2023-03-31T15:48:52;563.30;2432.00
55365;DHT22;41245;45.384;20.390;2023-03-31T15:53:55;563.20;2432.00
55365;DHT22;41245;45.384;20.390;2023-03-31T15:56:30;563.20;2432.00
55365;DHT22;41245;45.384;20.390;2023-03-31T15:59:00;563.20;2432.00
55365;DHT22;41245;45.384;20.390;2023-03-31T16:01:30;538.50;2406.40
55365;DHT22;41245;45.384;20.390;2023-03-31T16:03:57;538.40;2406.40
55365;DHT22;41245;45.384;20.390;2023-03-31T16:06:36;538.30;2406.40
55365;DHT22;41245;45.384;20.390;2023-03-31T16:09:08;538.30;2406.40
55365;DHT22;41245;45.384;20.390;2023-03-31T16:11:37;538.20;2406.40
55365;DHT22;41245;45.384;20.390;2023-03-31T16:14:11;538.20;2406.40
55365;DHT22;41245;45.384;20.390;2023-03-31T16:16:39;538.00;2406.40
55365;DHT22;41245;45.384;20.390;2023-03-31T16:19:08;537.80;2406.40
55365;DHT22;41245;45.384;20.390;2023-03-31T16:21:43;537.90;2406.40
55365;DHT22;41245;45.384;20.390;2023-03-31T16:24:12;537.80;2406.40
55365;DHT22;41245;45.384;20.390;2023-03-31T16:26:38;537.70;2406.40
55365;DHT22;41245;45.384;20.390;2023-03-31T16:29:04;537.60;2406.40
55365;DHT22;41245;45.384;20.390;2023-03-31T16:31:39;537.60;2406.40
55365;DHT22;41245;45.384;20.390;2023-03-31T16:34:07;512.70;2380.80
55365;DHT22;41245;45.384;20.390;2023-03-31T17:59:50;486.90;2380.80
55365;DHT22;41245;45.384;20.390;2023-03-31T18:02:15;486.70;2380.80
55365;DHT22;41245;45.384;20.390;2023-03-31T18:04:41;486.70;2380.80
55365;DHT22;41245;45.384;20.390;2023-03-31T18:07:07;486.80;2380.80
55365;DHT22;41245;45.384;20.390;2023-03-31T18:09:33;486.70;2380.80
55365;DHT22;41245;45.384;20.390;2023-03-31T18:11:59;486.70;2380.80
55365;DHT22;41245;45.384;20.390;2023-03-31T18:14:25;486.70;2380.80
55365;DHT22;41245;45.384;20.390;2023-03-31T22:05:23;435.20;2124.80
55365;DHT22;41245;45.384;20.390;2023-03-31T22:07:49;435.20;2201.60
55365;DHT22;41245;45.384;20.390;2023-03-31T22:34:35;409.60;2355.20
55365;DHT22;41245;45.384;20.390;2023-03-31T22:37:01;384.70;2329.60
